Time;durP1;ratioP1;P1;durP2;ratioP2;P2;SDS_P1;SDS_P2;PMS_P1;PMS_P2;Temp;Humidity;BMP_temperature;BMP_pressure;BME280_temperature;BME280_humidity;BME280_pressure;Samples;Min_cycle;Max_cycle;Signal;HPM_P1;HPM_P2
2023/07/02 05:51:32;;;;;;;5.20;1.80;;;;;;;19.10;84.66;98193.55;102681;1293;603819;-69
2023/07/02 05:54:19;;;;;;;5.00;1.40;;;;;;;18.83;85.48;98192.27;105266;1270;61183;-67
2023/07/02 05:57:05;;;;;;;5.20;1.70;;;;;;;18.64;86.40;98188.91;105305;1267;60052;-66
2023/07/02 05:59:52;;;;;;;5.30;1.50;;;;;;;18.47;87.63;98191.46;105464;1257;70813;-66
2023/07/02 06:02:39;;;;;;;6.60;1.70;;;;;;;18.33;88.44;98191.92;105416;1263;69594;-66
2023/07/02 06:05:25;;;;;;;5.50;1.80;;;;;;;18.21;89.03;98199.88;105562;1256;229824;-64
2023/07/02 06:08:14;;;;;;;5.10;1.60;;;;;;;18.13;89.91;98206.13;105546;1256;59347;-67
2023/07/02 06:11:01;;;;;;;5.70;1.80;;;;;;;18.05;90.37;98207.90;105749;1256;59518;-66
2023/07/02 06:13:47;;;;;;;6.10;2.00;;;;;;;17.91;90.96;98202.27;105790;1256;71216;-70
2023/07/02 06:16:34;;;;;;;5.10;1.60;;;;;;;17.73;91.95;98201.22;105980;1255;68356;-65
2023/07/02 06:19:21;;;;;;;6.00;1.80;;;;;;;17.63;92.35;98200.55;105733;1261;73094;-65
2023/07/02 06:22:07;;;;;;;5.60;1.80;;;;;;;17.51;93.26;98201.39;105665;1257;59362;-65
2023/07/02 06:24:54;;;;;;;5.40;1.90;;;;;;;17.45;94.30;98202.02;108775;1256;58810;-65
2023/07/02 06:27:41;;;;;;;7.00;1.80;;;;;;;17.43;94.43;98200.66;106723;1255;71813;-66
2023/07/02 06:30:27;;;;;;;5.80;1.80;;;;;;;17.46;95.30;98197.73;105500;1259;69199;-67
2023/07/02 06:33:14;;;;;;;5.00;1.80;;;;;;;17.51;95.05;98193.66;105540;1259;72964;-66
2023/07/02 06:36:01;;;;;;;6.20;1.80;;;;;;;17.50;95.07;98199.77;105728;1259;61115;-69
2023/07/02 06:38:47;;;;;;;5.00;1.60;;;;;;;17.45;95.79;98203.85;105821;1255;60853;-69
2023/07/02 06:41:35;;;;;;;5.30;1.70;;;;;;;17.32;96.26;98203.40;106763;1256;72415;-66
2023/07/02 06:44:22;;;;;;;4.90;1.70;;;;;;;17.18;96.93;98206.17;105752;1257;68263;-66
2023/07/02 06:47:09;;;;;;;5.30;1.90;;;;;;;17.07;97.95;98210.48;105844;1257;71993;-66
2023/07/02 06:49:56;;;;;;;5.10;1.90;;;;;;;16.92;98.40;98203.20;105765;1259;61182;-67
2023/07/02 06:52:42;;;;;;;5.00;1.60;;;;;;;16.82;98.55;98205.02;105710;1256;61747;-66
2023/07/02 06:55:30;;;;;;;5.60;1.50;;;;;;;16.74;98.48;98213.81;105719;1256;72206;-66
2023/07/02 06:58:17;;;;;;;4.50;1.40;;;;;;;16.69;98.57;98216.63;105680;1259;69465;-66
2023/07/02 07:01:04;;;;;;;4.90;1.60;;;;;;;16.59;98.40;98225.59;105528;1257;73277;-67
2023/07/02 07:03:50;;;;;;;6.00;1.70;;;;;;;16.49;97.80;98233.86;106086;1259;60790;-70
2023/07/02 07:06:38;;;;;;;7.90;1.80;;;;;;;16.37;94.97;98242.63;105908;1259;59841;-66
2023/07/02 07:09:25;;;;;;;6.60;2.00;;;;;;;16.25;93.77;98248.86;105772;1257;72023;-69
2023/07/02 07:12:12;;;;;;;9.10;2.30;;;;;;;16.14;93.29;98242.63;105753;1259;69282;-68
2023/07/02 07:14:59;;;;;;;7.20;2.00;;;;;;;16.10;92.94;98243.96;105842;1259;72528;-66
2023/07/02 07:17:45;;;;;;;7.20;2.10;;;;;;;16.10;93.02;98243.06;105852;1256;59605;-69
2023/07/02 07:20:33;;;;;;;10.50;2.50;;;;;;;16.14;93.18;98239.70;105773;1256;59851;-65
2023/07/02 07:23:20;;;;;;;8.60;2.20;;;;;;;16.22;93.22;98237.55;105885;1256;72058;-66
2023/07/02 07:26:07;;;;;;;8.20;2.10;;;;;;;16.37;92.86;98231.56;105907;1256;69195;-65
2023/07/02 07:28:57;;;;;;;7.40;2.20;;;;;;;16.51;92.24;98229.14;105955;1259;73119;-63
2023/07/02 07:31:44;;;;;;;6.20;1.70;;;;;;;16.73;91.29;98233.90;105737;1256;59974;-66
2023/07/02 07:34:30;;;;;;;5.60;1.90;;;;;;;16.89;89.07;98239.77;105452;1257;60742;-68
2023/07/02 07:37:17;;;;;;;7.00;2.10;;;;;;;16.91;87.05;98238.77;105815;1257;72331;-68
2023/07/02 07:40:06;;;;;;;7.00;2.20;;;;;;;17.16;86.24;98245.39;105986;1256;68277;-67
2023/07/02 07:42:53;;;;;;;6.80;2.30;;;;;;;17.18;84.32;98246.88;105704;1259;73182;-68
2023/07/02 07:45:40;;;;;;;8.30;2.00;;;;;;;17.13;84.25;98255.27;105572;1261;59592;-67
2023/07/02 07:48:27;;;;;;;7.30;2.20;;;;;;;16.98;83.14;98259.33;106073;1256;61782;-68
2023/07/02 07:51:14;;;;;;;7.90;1.90;;;;;;;16.88;83.35;98265.72;105769;1257;71710;-68
2023/07/02 07:54:03;;;;;;;8.80;2.30;;;;;;;16.77;83.79;98274.06;105640;1259;68501;-64
2023/07/02 07:56:50;;;;;;;7.90;2.10;;;;;;;16.59;84.69;98276.86;105854;1255;73145;-68
2023/07/02 07:59:37;;;;;;;8.20;2.30;;;;;;;16.36;86.39;98280.21;105853;1258;59694;-67
2023/07/02 08:02:24;;;;;;;8.40;2.60;;;;;;;16.18;86.97;98286.13;105625;1262;60706;-67
2023/07/02 08:05:11;;;;;;;5.90;2.00;;;;;;;16.09;87.18;98284.95;105616;1254;71863;-66
2023/07/02 08:07:58;;;;;;;7.30;2.10;;;;;;;16.02;87.21;98291.48;105802;1256;69146;-67
2023/07/02 08:10:46;;;;;;;7.00;2.20;;;;;;;15.96;88.09;98291.61;105591;1257;74200;-63
2023/07/02 08:13:33;;;;;;;7.40;2.30;;;;;;;15.92;88.86;98297.62;106038;1259;59784;-65
2023/07/02 08:16:21;;;;;;;8.00;2.20;;;;;;;15.87;88.94;98290.44;105934;1257;59575;-66
2023/07/02 08:19:08;;;;;;;7.20;2.20;;;;;;;15.98;89.26;98293.97;105741;1257;71933;-67
2023/07/02 08:21:55;;;;;;;6.10;2.00;;;;;;;16.16;89.64;98290.65;106313;1256;69205;-69
2023/07/02 08:24:41;;;;;;;8.80;2.80;;;;;;;16.42;89.21;98294.98;105628;1257;72023;-66
2023/07/02 08:27:30;;;;;;;7.50;2.20;;;;;;;16.66;88.59;98290.28;105608;1259;59697;-65
2023/07/02 08:30:17;;;;;;;7.90;2.50;;;;;;;16.86;87.64;98284.27;106020;1255;59585;-68
2023/07/02 08:33:03;;;;;;;8.90;2.00;;;;;;;17.30;86.35;98280.69;105595;1256;72778;-66
2023/07/02 08:35:50;;;;;;;7.60;2.20;;;;;;;17.79;85.15;98287.46;106128;1259;68360;-70
2023/07/02 08:38:39;;;;;;;9.60;2.40;;;;;;;18.36;82.93;98289.94;105735;1257;73128;-71
2023/07/02 08:41:25;;;;;;;7.70;2.30;;;;;;;19.38;79.17;98284.86;105834;1255;59451;-71
2023/07/02 08:44:13;;;;;;;8.60;3.00;;;;;;;20.47;73.80;98279.76;105541;1259;59348;-70
2023/07/02 08:47:01;;;;;;;8.90;2.40;;;;;;;21.58;66.78;98274.85;106014;1255;71824;-69
2023/07/02 08:49:49;;;;;;;8.30;2.20;;;;;;;-98.02;12.02;19654.77;104027;1259;1002644;-70
2023/07/02 08:52:36;;;;;;;8.50;2.10;;;;;;;-128.00;-1.00;-1.00;103690;1257;1012817;-69
2023/07/02 08:55:23;;;;;;;8.90;2.00;;;;;;;-128.00;-1.00;-1.00;103149;1253;1009984;-70
2023/07/02 08:58:10;;;;;;;7.90;1.90;;;;;;;-128.00;-1.00;-1.00;103310;1257;1010815;-71
2023/07/02 09:01:14;;;;;;;8.10;2.20;;;;;;;-128.00;-1.00;-1.00;103240;1258;1013016;-69
2023/07/02 09:04:01;;;;;;;6.30;1.70;;;;;;;-128.00;-1.00;-1.00;103178;1254;1012489;-68
2023/07/02 09:06:48;;;;;;;7.80;1.90;;;;;;;-128.00;-1.00;-1.00;103395;1253;1013058;-68
2023/07/02 09:09:50;;;;;;;6.80;1.70;;;;;;;-35.36;28.45;58964.69;104590;1254;1010290;-68
2023/07/02 09:12:38;;;;;;;8.40;2.10;;;;;;;26.62;45.63;98274.34;105848;1253;61902;-69
2023/07/02 09:15:25;;;;;;;9.10;1.80;;;;;;;26.17;46.85;98282.16;106107;1253;71961;-68
2023/07/02 09:18:20;;;;;;;8.10;1.90;;;;;;;25.24;48.24;98283.70;105837;1258;69410;-69
2023/07/02 09:21:07;;;;;;;8.80;2.10;;;;;;;24.32;50.51;98284.54;105812;1253;74305;-69
2023/07/02 09:23:54;;;;;;;8.80;1.80;;;;;;;23.78;51.44;98294.59;105569;1260;59083;-69
2023/07/02 09:26:55;;;;;;;9.20;2.00;;;;;;;23.12;52.20;98299.35;105984;1259;59783;-65
2023/07/02 09:29:41;;;;;;;10.70;2.00;;;;;;;22.44;54.94;98301.83;105758;1258;73076;-69
2023/07/02 09:32:28;;;;;;;8.00;2.50;;;;;;;21.79;57.05;98295.83;105830;1254;67409;-68
2023/07/02 09:35:15;;;;;;;8.40;2.40;;;;;;;21.15;58.51;98294.66;105764;1254;72815;-67
2023/07/02 09:38:03;;;;;;;9.60;2.30;;;;;;;20.58;60.58;98296.73;105663;1254;59376;-66
2023/07/02 09:40:53;;;;;;;7.30;2.30;;;;;;;20.07;62.51;98296.47;105956;1254;60580;-69
2023/07/02 09:43:40;;;;;;;10.10;2.50;;;;;;;19.86;64.09;98299.54;105884;1254;71835;-68
2023/07/02 09:46:27;;;;;;;9.50;2.70;;;;;;;20.44;63.41;98294.00;105762;1259;67296;-65
2023/07/02 09:49:19;;;;;;;8.60;2.70;;;;;;;21.28;61.09;98298.17;105919;1259;73357;-69
2023/07/02 09:52:09;;;;;;;11.00;2.40;;;;;;;21.46;59.20;98301.21;106059;1258;59344;-69
2023/07/02 09:54:56;;;;;;;7.60;2.20;;;;;;;21.68;57.72;98303.05;105977;1259;59741;-68
2023/07/02 09:57:44;;;;;;;7.30;2.30;;;;;;;21.71;56.38;98308.21;105636;1259;71737;-69
2023/07/02 10:00:31;;;;;;;8.20;2.40;;;;;;;22.31;55.32;98309.23;105921;1254;67261;-69
2023/07/02 10:03:29;;;;;;;9.30;2.60;;;;;;;23.82;52.03;98300.27;105802;1258;73284;-69
2023/07/02 10:06:16;;;;;;;7.40;2.10;;;;;;;25.08;47.63;98301.61;105870;1258;59253;-70
2023/07/02 10:09:03;;;;;;;7.60;2.30;;;;;;;25.94;45.32;98308.36;106306;1258;61308;-67
2023/07/02 10:11:50;;;;;;;10.20;2.50;;;;;;;25.44;44.76;98308.95;105794;1254;71825;-70
2023/07/02 10:14:44;;;;;;;9.80;2.60;;;;;;;24.56;45.80;98321.48;105996;1253;67509;-67
2023/07/02 10:17:34;;;;;;;7.00;2.10;;;;;;;23.51;48.33;98321.14;106190;1253;73143;-66
2023/07/02 10:20:44;;;;;;;8.40;2.40;;;;;;;22.66;50.17;98328.17;106063;1254;59343;-67
2023/07/02 10:23:35;;;;;;;8.90;2.60;;;;;;;21.64;53.63;98336.45;105588;1258;60918;-70
2023/07/02 10:26:21;;;;;;;9.50;3.00;;;;;;;20.97;55.96;98344.67;105767;1256;72215;-67
2023/07/02 10:29:19;;;;;;;8.70;2.90;;;;;;;20.62;58.05;98348.89;105747;1253;68123;-68
2023/07/02 10:32:06;;;;;;;8.00;2.60;;;;;;;20.77;58.45;98349.15;105795;1257;74194;-69
2023/07/02 10:34:54;;;;;;;8.60;2.80;;;;;;;22.46;54.77;98335.77;105815;1259;59274;-69
2023/07/02 10:37:42;;;;;;;8.80;3.00;;;;;;;24.24;50.38;98325.82;105882;1254;60948;-71
2023/07/02 10:40:33;;;;;;;10.90;2.80;;;;;;;25.18;47.25;98317.94;106096;1254;71353;-71
2023/07/02 10:43:28;;;;;;;6.90;2.30;;;;;;;24.90;46.97;98321.29;106096;1257;69163;-71
2023/07/02 10:46:21;;;;;;;8.20;2.80;;;;;;;24.65;46.02;98327.85;105714;1259;72526;-70
2023/07/02 10:49:09;;;;;;;7.90;2.80;;;;;;;24.13;47.44;98330.95;106358;1259;59266;-69
2023/07/02 10:52:07;;;;;;;7.40;2.60;;;;;;;23.71;48.84;98339.10;106102;1254;60326;-69
2023/07/02 10:54:53;;;;;;;8.70;2.40;;;;;;;23.56;49.02;98342.34;105749;1254;71359;-65
2023/07/02 10:57:40;;;;;;;9.40;2.40;;;;;;;23.16;48.66;98349.13;105926;1259;68573;-65
2023/07/02 11:00:27;;;;;;;8.00;2.70;;;;;;;22.50;47.81;98356.91;105959;1254;73325;-65
2023/07/02 11:03:22;;;;;;;9.40;2.60;;;;;;;21.94;47.65;98371.34;105881;1259;59329;-66
2023/07/02 11:06:10;;;;;;;9.20;2.90;;;;;;;21.36;46.94;98382.79;105930;1253;60767;-67
2023/07/02 11:08:58;;;;;;;10.20;2.60;;;;;;;20.86;47.33;98387.25;105764;1257;73539;-67
2023/07/02 11:11:59;;;;;;;8.40;2.90;;;;;;;20.47;49.58;98378.72;105993;1259;68507;-67
2023/07/02 11:14:46;;;;;;;9.20;3.00;;;;;;;20.19;51.33;98385.66;105631;1257;72448;-68
2023/07/02 11:17:32;;;;;;;8.20;2.90;;;;;;;20.00;52.97;98391.48;106016;1259;59308;-68
2023/07/02 11:20:19;;;;;;;8.30;3.10;;;;;;;19.80;54.13;98387.65;106154;1254;60203;-68
2023/07/02 11:23:26;;;;;;;9.30;2.90;;;;;;;19.52;54.16;98381.36;105910;1254;72785;-69
2023/07/02 11:26:14;;;;;;;11.80;2.90;;;;;;;19.37;54.91;98387.77;106898;1253;68371;-68
2023/07/02 11:29:01;;;;;;;11.20;3.00;;;;;;;19.55;55.09;98384.54;106434;1254;73220;-70
2023/07/02 11:31:48;;;;;;;9.40;3.10;;;;;;;20.22;54.06;98382.11;107057;1259;59491;-66
2023/07/02 11:34:36;;;;;;;10.10;3.20;;;;;;;21.11;52.05;98374.38;107338;1253;61009;-67
2023/07/02 11:37:22;;;;;;;8.80;2.80;;;;;;;21.92;50.68;98372.12;106041;1254;73762;-67
2023/07/02 11:40:10;;;;;;;9.50;3.10;;;;;;;22.30;49.34;98374.59;106314;1255;68452;-68
2023/07/02 11:42:56;;;;;;;10.70;2.90;;;;;;;22.14;48.64;98361.48;105890;1257;74178;-68
2023/07/02 11:45:44;;;;;;;13.70;2.90;;;;;;;21.84;49.31;98365.71;106082;1253;60134;-67
2023/07/02 11:48:30;;;;;;;9.70;3.00;;;;;;;21.64;50.29;98370.20;106018;1253;62191;-68
2023/07/02 11:51:17;;;;;;;9.00;3.40;;;;;;;21.57;50.70;98375.35;106008;1258;72703;-68
2023/07/02 11:54:06;;;;;;;9.40;2.70;;;;;;;21.50;51.33;98380.64;105903;1257;69410;-68
2023/07/02 11:56:52;;;;;;;9.10;3.00;;;;;;;21.47;51.86;98380.84;106027;1259;73316;-70
2023/07/02 11:59:40;;;;;;;7.70;3.00;;;;;;;21.43;51.92;98386.48;106155;1259;59686;-68
2023/07/02 12:02:26;;;;;;;10.90;3.50;;;;;;;21.38;52.18;98390.88;106479;1256;60624;-70
2023/07/02 12:05:13;;;;;;;10.00;3.30;;;;;;;20.99;53.32;98389.95;106199;1253;72440;-66
2023/07/02 12:08:02;;;;;;;10.80;3.20;;;;;;;20.90;54.52;98393.39;105785;1253;67332;-69
2023/07/02 12:10:49;;;;;;;10.90;3.00;;;;;;;21.00;54.39;98403.50;105812;1259;74126;-69
2023/07/02 12:13:36;;;;;;;9.50;3.40;;;;;;;21.14;54.24;98402.80;105796;1253;59342;-69
2023/07/02 12:16:22;;;;;;;11.60;3.30;;;;;;;21.25;53.10;98397.23;105806;1256;59586;-68
2023/07/02 12:19:10;;;;;;;10.40;3.40;;;;;;;21.32;51.81;98396.76;105939;1254;71175;-67
2023/07/02 12:21:56;;;;;;;9.50;3.20;;;;;;;21.37;51.48;98397.59;105978;1259;68298;-69
2023/07/02 12:24:44;;;;;;;10.90;3.40;;;;;;;21.54;50.99;98405.45;105805;1261;73122;-68
2023/07/02 12:27:32;;;;;;;9.50;3.60;;;;;;;21.52;48.69;98404.96;105711;1259;59232;-69
2023/07/02 12:30:19;;;;;;;12.20;3.40;;;;;;;21.32;47.56;98420.88;105916;1254;60548;-67
2023/07/02 12:33:07;;;;;;;11.90;3.10;;;;;;;21.08;48.42;98430.77;105754;1254;73458;-69
2023/07/02 12:35:53;;;;;;;10.80;3.20;;;;;;;20.90;48.28;98436.27;105948;1254;68388;-69
2023/07/02 12:38:40;;;;;;;11.60;3.30;;;;;;;20.67;48.33;98432.77;106057;1254;72725;-69
2023/07/02 12:41:28;;;;;;;11.20;3.30;;;;;;;20.55;48.87;98433.52;105583;1254;59352;-67
2023/07/02 12:44:14;;;;;;;10.80;3.10;;;;;;;20.64;49.20;98430.23;105642;1254;60348;-68
2023/07/02 12:47:01;;;;;;;9.90;3.50;;;;;;;20.53;48.35;98435.37;105723;1254;73943;-71
2023/07/02 12:49:47;;;;;;;10.00;3.40;;;;;;;20.51;49.24;98432.17;105702;1259;67672;-67
2023/07/02 12:52:34;;;;;;;11.40;3.60;;;;;;;20.49;48.11;98436.31;105782;1259;73352;-66
2023/07/02 12:55:21;;;;;;;11.50;3.80;;;;;;;20.33;48.33;98446.23;105752;1253;59605;-66
2023/07/02 12:58:08;;;;;;;14.20;4.10;;;;;;;20.45;48.78;98441.81;105849;1258;61818;-68
2023/07/02 13:00:55;;;;;;;11.80;3.30;;;;;;;20.57;47.95;98441.02;105463;1253;72938;-65
2023/07/02 13:03:50;;;;;;;9.30;3.10;;;;;;;20.56;46.38;98434.20;105798;1259;68311;-66
2023/07/02 13:06:39;;;;;;;10.80;3.20;;;;;;;20.52;45.76;98431.75;105891;1258;72164;-67
2023/07/02 13:09:26;;;;;;;8.50;3.10;;;;;;;20.48;45.72;98426.67;106071;1253;59788;-66
2023/07/02 13:12:14;;;;;;;11.00;2.90;;;;;;;20.52;44.52;98433.17;105831;1253;59618;-69
2023/07/02 13:15:02;;;;;;;10.30;3.10;;;;;;;20.56;43.99;98435.04;105967;1254;72702;-65
2023/07/02 13:17:49;;;;;;;7.70;2.50;;;;;;;20.70;44.12;98440.48;105953;1258;68844;-67
2023/07/02 13:20:36;;;;;;;9.40;3.20;;;;;;;20.69;43.34;98442.78;105791;1256;73279;-67
2023/07/02 13:23:23;;;;;;;11.50;3.50;;;;;;;20.74;43.40;98451.75;105692;1253;59218;-66
2023/07/02 13:26:09;;;;;;;10.30;3.30;;;;;;;20.72;43.22;98453.56;105824;1253;59983;-64
2023/07/02 13:28:56;;;;;;;8.40;3.00;;;;;;;20.70;43.56;98452.92;106059;1254;73446;-65
2023/07/02 13:31:42;;;;;;;12.30;3.30;;;;;;;20.68;44.39;98465.45;105838;1259;67901;-64
2023/07/02 13:34:29;;;;;;;8.80;3.00;;;;;;;20.68;44.55;98466.41;106092;1254;74035;-66
2023/07/02 13:37:19;;;;;;;11.70;3.20;;;;;;;20.76;44.76;98470.95;105553;1253;59342;-63
2023/07/02 13:40:08;;;;;;;9.90;3.40;;;;;;;20.94;44.93;98469.04;105644;1258;59264;-66
2023/07/02 13:42:55;;;;;;;9.40;3.20;;;;;;;20.96;44.56;98475.48;105424;1259;73588;-67
2023/07/02 13:45:42;;;;;;;13.40;3.60;;;;;;;20.81;44.89;98475.93;106063;1259;66370;-67
2023/07/02 13:48:29;;;;;;;13.40;3.60;;;;;;;20.71;45.65;98481.39;105795;1254;71871;-65
2023/07/02 13:51:16;;;;;;;10.00;3.70;;;;;;;20.49;46.59;98488.58;106056;1259;59231;-65
2023/07/02 13:54:03;;;;;;;11.50;3.70;;;;;;;20.31;47.38;98503.86;105921;1253;61829;-66
2023/07/02 13:56:50;;;;;;;11.40;3.50;;;;;;;20.03;48.00;98509.13;105637;1254;71658;-64
2023/07/02 13:59:37;;;;;;;10.20;3.70;;;;;;;19.79;49.76;98517.58;105775;1254;67617;-65
2023/07/02 14:02:24;;;;;;;9.40;3.40;;;;;;;19.63;51.36;98516.52;105883;1254;71599;-66
2023/07/02 14:05:11;;;;;;;10.40;3.70;;;;;;;19.58;52.18;98523.49;106065;1254;59304;-65
2023/07/02 14:07:58;;;;;;;8.80;3.10;;;;;;;19.59;53.64;98516.39;105740;1254;60621;-67
2023/07/02 14:10:45;;;;;;;10.10;3.20;;;;;;;19.68;52.23;98517.96;105988;1253;71337;-67
2023/07/02 14:13:32;;;;;;;10.20;3.20;;;;;;;19.58;51.23;98520.09;105644;1253;68285;-67
2023/07/02 14:16:19;;;;;;;10.40;3.50;;;;;;;19.50;51.33;98515.32;105690;1253;73155;-65
2023/07/02 14:19:06;;;;;;;10.20;3.10;;;;;;;19.57;50.25;98511.05;105802;1254;59631;-64
2023/07/02 14:21:53;;;;;;;10.30;3.60;;;;;;;19.86;48.35;98505.64;105971;1254;60940;-67
2023/07/02 14:24:39;;;;;;;13.20;3.90;;;;;;;20.16;46.70;98507.92;106000;1255;73765;-66
2023/07/02 14:27:26;;;;;;;11.90;3.60;;;;;;;20.27;45.73;98503.55;105590;1259;68058;-67
2023/07/02 14:30:13;;;;;;;10.90;3.10;;;;;;;20.35;45.74;98500.70;105534;1259;73268;-66
2023/07/02 14:33:00;;;;;;;11.00;3.50;;;;;;;20.24;45.66;98503.65;105316;1259;59313;-68
2023/07/02 14:35:47;;;;;;;10.50;4.20;;;;;;;20.20;45.77;98501.27;105857;1259;61020;-66
2023/07/02 14:38:35;;;;;;;13.10;3.80;;;;;;;20.24;46.03;98511.19;105626;1253;72515;-66
2023/07/02 14:41:21;;;;;;;13.10;4.20;;;;;;;20.27;46.30;98511.16;105801;1258;68637;-67
2023/07/02 14:44:08;;;;;;;10.20;3.70;;;;;;;20.10;46.47;98522.42;105812;1253;73011;-66
2023/07/02 14:46:55;;;;;;;10.70;4.10;;;;;;;19.87;46.95;98534.23;105558;1259;59359;-66
2023/07/02 14:49:42;;;;;;;13.40;4.40;;;;;;;19.74;47.65;98540.20;105820;1259;62140;-66
2023/07/02 14:52:30;;;;;;;10.70;3.80;;;;;;;19.65;48.09;98563.10;105901;1253;73003;-66
2023/07/02 14:55:16;;;;;;;8.90;3.20;;;;;;;19.33;49.37;98596.09;105555;1253;67241;-64
2023/07/02 14:58:03;;;;;;;10.30;3.60;;;;;;;18.78;53.10;98602.99;105772;1258;74130;-67
2023/07/02 15:00:53;;;;;;;10.80;3.30;;;;;;;18.22;57.60;98605.04;105724;1261;59191;-65
2023/07/02 15:03:40;;;;;;;9.20;3.70;;;;;;;17.76;61.36;98597.35;106002;1254;59352;-65
2023/07/02 15:06:27;;;;;;;10.70;3.60;;;;;;;17.42;62.97;98599.52;106069;1253;73797;-65
2023/07/02 15:09:16;;;;;;;11.80;3.80;;;;;;;17.09;65.04;98602.52;105877;1253;68348;-68
2023/07/02 15:12:03;;;;;;;11.30;4.30;;;;;;;16.84;66.36;98602.95;105958;1259;73982;-67
2023/07/02 15:14:50;;;;;;;11.30;4.30;;;;;;;16.59;67.46;98599.64;105803;1254;59695;-65
2023/07/02 15:17:36;;;;;;;14.10;4.60;;;;;;;16.34;69.35;98597.60;105785;1259;60843;-63
2023/07/02 15:20:25;;;;;;;10.80;4.30;;;;;;;16.17;70.02;98599.27;105931;1254;72567;-65
2023/07/02 15:23:13;;;;;;;11.10;4.60;;;;;;;16.13;71.06;98593.83;105824;1257;69483;-65
2023/07/02 15:26:02;;;;;;;12.60;4.20;;;;;;;16.15;71.64;98595.38;105948;1253;73300;-66
2023/07/02 15:28:49;;;;;;;11.60;4.50;;;;;;;16.09;71.58;98595.06;106131;1258;59470;-66
2023/07/02 15:31:40;;;;;;;10.40;4.20;;;;;;;16.06;72.61;98595.15;106003;1259;59970;-66
2023/07/02 15:34:27;;;;;;;14.00;4.00;;;;;;;16.06;72.07;98590.11;106007;1254;72778;-64
2023/07/02 15:37:13;;;;;;;11.40;4.10;;;;;;;16.22;72.08;98587.96;105966;1257;69415;-66
2023/07/02 15:40:00;;;;;;;12.20;3.50;;;;;;;16.55;71.15;98576.73;105755;1260;72112;-67
2023/07/02 15:42:46;;;;;;;12.30;4.30;;;;;;;16.79;69.20;98576.70;106089;1259;59215;-66
2023/07/02 15:45:33;;;;;;;14.40;4.60;;;;;;;17.03;67.93;98569.73;105876;1258;60733;-68
2023/07/02 15:48:21;;;;;;;13.30;4.40;;;;;;;17.20;67.09;98575.08;106055;1259;71919;-64
2023/07/02 15:51:09;;;;;;;13.20;4.60;;;;;;;17.31;65.50;98568.25;105940;1258;68038;-65
2023/07/02 15:53:56;;;;;;;12.40;3.90;;;;;;;17.37;64.57;98570.25;105772;1254;73378;-65
2023/07/02 15:56:43;;;;;;;10.90;3.80;;;;;;;17.41;63.86;98578.50;105537;1253;59794;-67
2023/07/02 15:59:29;;;;;;;11.50;3.90;;;;;;;17.44;63.35;98576.69;105755;1259;60455;-64
2023/07/02 16:02:16;;;;;;;11.10;4.10;;;;;;;17.51;62.85;98574.29;106044;1254;71549;-67
2023/07/02 16:05:03;;;;;;;13.30;3.90;;;;;;;17.55;62.20;98576.12;106054;1258;68972;-66
2023/07/02 16:07:51;;;;;;;12.70;4.30;;;;;;;17.59;61.79;98573.23;106058;1254;71914;-63
2023/07/02 16:10:43;;;;;;;11.30;3.70;;;;;;;17.62;61.99;98569.15;105793;1254;59823;-65
2023/07/02 16:13:29;;;;;;;11.30;4.00;;;;;;;17.63;61.41;98573.22;105440;1260;59795;-68
2023/07/02 16:16:16;;;;;;;11.70;3.90;;;;;;;17.61;61.64;98576.71;105853;1259;72687;-67
2023/07/02 16:19:03;;;;;;;10.60;4.00;;;;;;;17.47;62.15;98577.98;105400;1260;67282;-66
2023/07/02 16:21:50;;;;;;;12.50;4.10;;;;;;;17.32;62.77;98582.88;106111;1259;73192;-68
2023/07/02 16:24:37;;;;;;;8.40;3.40;;;;;;;17.18;63.64;98587.52;106386;1254;59655;-67
2023/07/02 16:27:23;;;;;;;10.30;3.50;;;;;;;17.03;64.31;98592.34;105858;1258;60045;-66
2023/07/02 16:30:11;;;;;;;11.40;3.50;;;;;;;16.92;65.18;98588.67;105993;1253;73984;-65
2023/07/02 16:32:59;;;;;;;12.60;3.90;;;;;;;16.84;65.80;98579.63;105861;1259;68462;-66
2023/07/02 16:35:47;;;;;;;11.90;3.50;;;;;;;16.91;65.54;98585.12;106044;1259;73258;-65
2023/07/02 16:38:35;;;;;;;10.30;3.40;;;;;;;16.97;65.18;98580.98;105888;1258;59444;-67
2023/07/02 16:41:22;;;;;;;9.50;3.40;;;;;;;17.09;64.45;98579.41;106153;1253;59692;-67
2023/07/02 16:44:09;;;;;;;9.50;3.60;;;;;;;17.19;63.90;98578.55;106062;1254;72843;-66
2023/07/02 16:46:56;;;;;;;9.00;3.00;;;;;;;17.25;63.87;98581.81;105911;1256;68690;-67
2023/07/02 16:49:46;;;;;;;10.20;3.50;;;;;;;17.14;62.76;98574.52;105900;1254;72101;-65
2023/07/02 16:52:33;;;;;;;12.60;3.70;;;;;;;17.05;62.55;98576.86;105516;1254;59369;-68
2023/07/02 16:55:20;;;;;;;9.90;2.90;;;;;;;17.00;63.18;98574.73;105939;1253;60989;-67
2023/07/02 16:58:08;;;;;;;10.30;3.60;;;;;;;16.97;63.79;98578.76;105757;1256;71501;-66
2023/07/02 17:01:11;;;;;;;12.00;3.30;;;;;;;16.98;62.85;98577.86;105815;1259;66943;-65
2023/07/02 17:03:57;;;;;;;9.20;2.90;;;;;;;17.00;61.70;98582.51;105641;1260;73084;-67
2023/07/02 17:06:51;;;;;;;13.90;3.30;;;;;;;17.03;61.79;98582.27;105913;1259;59210;-66
2023/07/02 17:09:40;;;;;;;9.80;2.80;;;;;;;17.05;61.36;98583.48;105568;1254;60707;-67
2023/07/02 17:12:27;;;;;;;11.60;3.10;;;;;;;17.05;61.13;98595.89;106095;1257;71606;-66
2023/07/02 17:15:15;;;;;;;10.00;3.10;;;;;;;17.02;61.09;98595.30;106012;1258;69447;-65
2023/07/02 17:18:03;;;;;;;12.60;3.10;;;;;;;17.03;61.06;98595.54;106107;1256;73200;-65
2023/07/02 17:20:52;;;;;;;9.90;2.80;;;;;;;17.03;60.79;98590.54;106084;1258;59211;-65
2023/07/02 17:23:38;;;;;;;10.50;2.60;;;;;;;17.05;61.16;98596.02;106241;1255;60688;-66
2023/07/02 17:26:25;;;;;;;10.80;2.40;;;;;;;17.04;60.98;98601.46;106160;1257;72625;-66
2023/07/02 17:29:12;;;;;;;8.90;2.60;;;;;;;16.94;60.89;98605.69;106071;1253;68192;-64
2023/07/02 17:32:03;;;;;;;9.40;2.80;;;;;;;16.77;60.20;98615.21;105623;1258;72982;-64
2023/07/02 17:34:50;;;;;;;11.00;3.00;;;;;;;16.62;60.60;98608.89;105474;1262;59340;-67
2023/07/02 17:37:37;;;;;;;8.40;2.80;;;;;;;16.47;61.02;98623.02;105712;1254;61240;-68
2023/07/02 17:40:25;;;;;;;12.30;2.90;;;;;;;16.36;61.65;98624.92;105717;1257;72471;-65
2023/07/02 17:43:12;;;;;;;11.60;2.90;;;;;;;16.24;62.12;98627.95;106054;1254;68104;-63
2023/07/02 17:45:58;;;;;;;10.50;3.00;;;;;;;16.15;62.60;98619.56;105774;1258;73230;-68
2023/07/02 17:48:46;;;;;;;10.40;3.00;;;;;;;16.06;62.79;98631.31;106087;1259;59386;-66
2023/07/02 17:51:36;;;;;;;11.90;2.60;;;;;;;15.95;63.44;98636.48;106046;1260;61939;-63
2023/07/02 17:54:25;;;;;;;9.40;2.50;;;;;;;15.87;64.11;98641.13;105537;1259;72743;-64
2023/07/02 17:57:14;;;;;;;10.30;2.70;;;;;;;15.76;64.36;98636.84;105735;1260;68202;-67
2023/07/02 18:00:01;;;;;;;9.20;2.80;;;;;;;15.65;64.46;98641.34;105955;1258;72353;-66
2023/07/02 18:02:47;;;;;;;10.60;2.70;;;;;;;15.60;64.44;98645.76;105763;1258;59435;-68
2023/07/02 18:05:34;;;;;;;9.10;2.20;;;;;;;15.59;63.68;98640.71;105998;1255;229141;-68
2023/07/02 18:08:21;;;;;;;10.00;2.20;;;;;;;15.60;63.24;98637.75;105805;1258;73129;-64
2023/07/02 18:11:09;;;;;;;10.30;1.80;;;;;;;15.61;62.81;98644.05;105995;1254;69434;-66
2023/07/02 18:13:58;;;;;;;8.40;1.90;;;;;;;15.56;62.95;98648.39;105827;1258;73293;-65
2023/07/02 18:16:45;;;;;;;10.10;2.40;;;;;;;15.52;63.46;98654.56;105878;1259;59587;-68
2023/07/02 18:19:34;;;;;;;9.00;2.10;;;;;;;15.44;63.91;98653.95;106050;1254;60956;-66
2023/07/02 18:22:21;;;;;;;8.00;2.30;;;;;;;15.40;64.31;98646.44;105581;1259;71278;-68
2023/07/02 18:25:08;;;;;;;7.70;2.30;;;;;;;15.36;65.30;98646.38;105890;1260;67411;-69
2023/07/02 18:28:11;;;;;;;9.10;2.50;;;;;;;15.34;65.67;98645.77;105772;1259;73169;-71
2023/07/02 18:30:58;;;;;;;11.10;2.90;;;;;;;15.33;65.85;98646.64;105510;1260;59320;-68
2023/07/02 18:33:46;;;;;;;9.90;2.20;;;;;;;15.32;65.92;98650.70;105570;1259;60586;-70
2023/07/02 18:36:33;;;;;;;9.40;2.60;;;;;;;15.27;66.05;98650.36;105760;1260;72665;-69
2023/07/02 18:39:21;;;;;;;10.90;2.40;;;;;;;15.21;66.26;98647.16;105878;1256;67225;-69
2023/07/02 18:42:10;;;;;;;10.40;2.50;;;;;;;15.19;66.19;98653.06;105798;1259;71976;-66
2023/07/02 18:44:57;;;;;;;10.60;2.40;;;;;;;15.12;66.08;98649.55;105740;1259;59250;-67
2023/07/02 18:47:45;;;;;;;8.80;2.20;;;;;;;15.07;66.37;98657.31;105504;1255;61679;-68